createdAt,value
2022-09-25T00:01:11.656Z,11.43
2022-09-25T00:03:39.610Z,12.10
2022-09-25T00:06:19.503Z,11.37
2022-09-25T00:08:47.644Z,11.43
2022-09-25T00:11:23.930Z,11.90
2022-09-25T00:13:51.954Z,13.10
2022-09-25T00:16:23.388Z,11.57
2022-09-25T00:19:09.512Z,12.57
2022-09-25T00:21:37.988Z,11.77
2022-09-25T00:24:09.376Z,10.83
2022-09-25T00:26:41.744Z,11.50
2022-09-25T00:29:15.466Z,12.43
2022-09-25T00:31:42.555Z,12.50
2022-09-25T00:34:11.463Z,11.77
2022-09-25T00:36:38.844Z,11.20
2022-09-25T00:39:05.717Z,10.93
2022-09-25T00:41:32.546Z,11.47
2022-09-25T00:44:02.844Z,11.87
2022-09-25T00:46:39.569Z,11.40
2022-09-25T00:49:25.819Z,11.30
2022-09-25T00:52:04.945Z,10.67
2022-09-25T00:54:42.019Z,10.07
2022-09-25T00:57:15.503Z,9.93
2022-09-25T00:59:48.579Z,9.77
2022-09-25T01:02:26.070Z,11.17
2022-09-25T01:04:54.455Z,10.10
2022-09-25T01:07:21.351Z,9.93
2022-09-25T01:09:48.650Z,9.27
2022-09-25T01:12:15.403Z,9.43
2022-09-25T01:14:42.812Z,9.83
2022-09-25T01:17:26.996Z,11.23
2022-09-25T01:20:45.239Z,10.27
2022-09-25T01:23:46.297Z,10.73
2022-09-25T01:26:31.219Z,10.57
2022-09-25T01:29:31.382Z,10.50
2022-09-25T01:32:08.383Z,10.20
2022-09-25T01:34:50.471Z,10.77
2022-09-25T01:37:40.870Z,9.07
2022-09-25T01:40:28.686Z,9.40
2022-09-25T01:43:13.714Z,10.37
2022-09-25T01:45:55.963Z,10.90
2022-09-25T01:48:27.560Z,10.60
2022-09-25T01:51:05.807Z,10.33
2022-09-25T01:53:41.760Z,10.37
2022-09-25T01:56:23.246Z,9.67
2022-09-25T01:59:22.291Z,8.60
2022-09-25T02:01:52.771Z,8.50
2022-09-25T02:04:39.127Z,8.60
2022-09-25T02:07:15.335Z,9.93
2022-09-25T02:09:51.097Z,9.30
2022-09-25T02:12:26.992Z,9.60
2022-09-25T02:15:01.475Z,9.97
2022-09-25T02:18:05.095Z,9.47
2022-09-25T02:20:36.417Z,8.40
2022-09-25T02:23:23.526Z,8.50
2022-09-25T02:26:03.035Z,8.77
2022-09-25T02:28:29.755Z,9.70
2022-09-25T02:31:00.152Z,10.13
2022-09-25T02:33:26.983Z,9.90
2022-09-25T02:35:54.349Z,9.03
2022-09-25T02:38:21.686Z,9.57
2022-09-25T02:40:56.106Z,8.67
2022-09-25T02:44:00.336Z,8.20
2022-09-25T02:46:56.099Z,7.63
2022-09-25T02:49:43.966Z,9.40
2022-09-25T02:52:35.665Z,8.13
2022-09-25T02:55:30.930Z,8.73
2022-09-25T02:58:13.982Z,7.77
2022-09-25T03:00:44.654Z,7.70
2022-09-25T03:03:16.705Z,7.47
2022-09-25T03:05:45.482Z,7.33
2022-09-25T03:08:31.101Z,8.53
2022-09-25T03:10:59.134Z,9.07
2022-09-25T03:13:34.048Z,10.40
2022-09-25T03:16:05.937Z,9.40
2022-09-25T03:18:32.858Z,10.17
2022-09-25T03:20:59.904Z,9.23
2022-09-25T03:23:26.608Z,10.20
2022-09-25T03:25:54.688Z,9.57
2022-09-25T03:28:22.969Z,8.73
2022-09-25T03:31:02.417Z,8.40
2022-09-25T03:33:35.585Z,9.33
2022-09-25T03:36:07.502Z,9.00
2022-09-25T03:38:34.357Z,8.13
2022-09-25T03:41:01.955Z,8.73
2022-09-25T03:43:33.403Z,10.23
2022-09-25T03:46:00.161Z,10.53
2022-09-25T03:48:26.921Z,9.93
2022-09-25T03:50:55.124Z,8.53
2022-09-25T03:53:23.035Z,8.00
2022-09-25T03:55:49.719Z,8.23
2022-09-25T03:58:17.189Z,8.37
2022-09-25T04:00:46.599Z,7.97
2022-09-25T04:03:16.475Z,8.97
2022-09-25T04:05:43.672Z,9.07
2022-09-25T04:08:10.878Z,9.33
2022-09-25T04:10:38.708Z,8.37
2022-09-25T04:13:06.883Z,8.60
2022-09-25T04:15:34.018Z,9.30
2022-09-25T04:18:05.795Z,9.50
2022-09-25T04:20:33.189Z,10.23
2022-09-25T04:22:59.896Z,10.53
2022-09-25T04:25:26.707Z,10.67
2022-09-25T04:27:55.435Z,9.53
2022-09-25T04:30:24.118Z,8.97
2022-09-25T04:33:09.313Z,9.17
2022-09-25T04:35:36.705Z,10.20
2022-09-25T04:38:04.346Z,10.40
2022-09-25T04:40:32.615Z,9.03
2022-09-25T04:43:02.891Z,9.10
2022-09-25T04:45:34.050Z,9.27
2022-09-25T04:48:01.709Z,9.23
2022-09-25T04:50:29.905Z,9.50
2022-09-25T04:53:00.903Z,8.50
2022-09-25T04:55:28.401Z,9.20
2022-09-25T04:58:01.441Z,10.60
2022-09-25T05:00:32.101Z,8.67
2022-09-25T05:02:59.300Z,8.83
2022-09-25T05:05:30.431Z,8.87
2022-09-25T05:08:00.844Z,9.17
2022-09-25T05:10:32.748Z,8.83
2022-09-25T05:13:03.156Z,9.57
2022-09-25T05:15:33.311Z,10.13
2022-09-25T05:18:18.879Z,9.23
2022-09-25T05:20:46.256Z,10.37
2022-09-25T05:23:13.424Z,11.00
2022-09-25T05:25:40.397Z,10.53
2022-09-25T05:28:07.103Z,12.67
2022-09-25T05:30:38.532Z,13.43
2022-09-25T05:33:05.363Z,13.03
2022-09-25T05:35:34.497Z,12.00
2022-09-25T05:38:01.238Z,12.37
2022-09-25T05:40:28.468Z,12.93
2022-09-25T05:42:55.418Z,12.27
2022-09-25T05:45:23.758Z,11.67
2022-09-25T05:48:04.015Z,10.70
2022-09-25T05:50:34.269Z,12.50
2022-09-25T05:53:04.928Z,12.43
2022-09-25T05:55:32.837Z,13.33
2022-09-25T05:58:04.630Z,12.13
2022-09-25T06:00:33.336Z,14.53
2022-09-25T06:03:01.488Z,13.70
2022-09-25T06:05:28.538Z,13.67
2022-09-25T06:07:56.084Z,11.83
2022-09-25T06:10:25.945Z,13.33
2022-09-25T06:13:00.390Z,13.27
2022-09-25T06:15:29.583Z,13.77
2022-09-25T06:17:56.965Z,16.63
2022-09-25T06:20:24.862Z,14.20
2022-09-25T06:22:54.155Z,15.47
2022-09-25T06:25:23.823Z,15.67
2022-09-25T06:28:00.248Z,17.20
2022-09-25T06:30:34.027Z,15.73
2022-09-25T06:33:09.450Z,14.27
2022-09-25T06:35:41.544Z,18.07
2022-09-25T06:38:08.253Z,18.57
2022-09-25T06:40:37.815Z,16.37
2022-09-25T06:43:06.518Z,16.30
2022-09-25T06:45:34.897Z,15.17
2022-09-25T06:48:03.972Z,17.00
2022-09-25T06:50:43.610Z,16.83
2022-09-25T06:53:11.736Z,16.67
2022-09-25T06:55:39.592Z,14.07
2022-09-25T06:58:10.778Z,14.63
2022-09-25T07:00:37.668Z,13.23
2022-09-25T07:03:23.105Z,15.07
2022-09-25T07:05:49.979Z,15.10
2022-09-25T07:08:20.799Z,11.73
2022-09-25T07:10:52.857Z,13.17
2022-09-25T07:13:24.508Z,14.83
2022-09-25T07:15:57.039Z,13.93
2022-09-25T07:18:25.796Z,11.53
2022-09-25T07:20:54.146Z,11.33
2022-09-25T07:23:22.343Z,13.03
2022-09-25T07:25:50.171Z,11.73
2022-09-25T07:28:19.762Z,12.20
2022-09-25T07:30:49.309Z,13.93
2022-09-25T07:33:16.637Z,13.17
2022-09-25T07:35:43.353Z,11.33
2022-09-25T07:38:10.176Z,13.57
2022-09-25T07:40:36.999Z,11.60
2022-09-25T07:43:06.836Z,13.37
2022-09-25T07:45:33.706Z,14.50
2022-09-25T07:48:03.861Z,14.17
2022-09-25T07:50:32.592Z,13.43
2022-09-25T07:52:59.810Z,13.07
2022-09-25T07:55:28.432Z,11.20
2022-09-25T07:57:58.438Z,13.17
2022-09-25T08:00:25.395Z,10.87
2022-09-25T08:02:57.511Z,13.83
2022-09-25T08:05:25.650Z,12.73
2022-09-25T08:07:54.223Z,12.63
2022-09-25T08:10:22.052Z,13.40
2022-09-25T08:12:49.373Z,12.67
2022-09-25T08:15:16.453Z,12.47
2022-09-25T08:17:43.229Z,12.23
2022-09-25T08:20:10.708Z,10.23
2022-09-25T08:22:37.607Z,12.03
2022-09-25T08:25:04.647Z,11.50
2022-09-25T08:27:31.823Z,12.23
2022-09-25T08:29:58.795Z,14.23
2022-09-25T08:32:25.621Z,12.80
2022-09-25T08:34:52.504Z,13.57
2022-09-25T08:37:20.481Z,11.97
2022-09-25T08:39:47.232Z,12.00
2022-09-25T08:42:26.050Z,13.33
2022-09-25T08:45:21.581Z,13.77
2022-09-25T08:48:12.294Z,13.57
2022-09-25T08:50:39.325Z,11.37
2022-09-25T08:56:14.038Z,13.00
2022-09-25T08:58:53.603Z,12.00
2022-09-25T09:01:45.859Z,13.57
2022-09-25T09:04:26.167Z,9.97
2022-09-25T09:07:25.615Z,9.40
2022-09-25T09:10:28.105Z,11.90
2022-09-25T09:13:16.334Z,7.97
2022-09-25T09:15:58.040Z,8.07
2022-09-25T09:18:28.928Z,12.13
2022-09-25T09:21:02.234Z,9.03
2022-09-25T09:23:43.092Z,8.43
2022-09-25T09:26:40.204Z,9.13
2022-09-25T09:29:32.861Z,9.37
2022-09-25T09:32:25.992Z,9.13
2022-09-25T09:35:31.222Z,7.70
2022-09-25T09:38:52.755Z,7.77
2022-09-25T09:42:01.597Z,10.03
2022-09-25T09:45:03.149Z,7.57
2022-09-25T09:47:47.334Z,6.67
2022-09-25T09:50:44.493Z,6.87
2022-09-25T09:53:34.138Z,6.87
2022-09-25T09:56:15.769Z,7.40
2022-09-25T09:59:03.553Z,6.07
2022-09-25T10:01:41.461Z,5.37
2022-09-25T10:04:10.641Z,4.97
2022-09-25T10:06:53.602Z,4.73
2022-09-25T10:09:20.393Z,4.90
2022-09-25T10:11:59.720Z,4.57
2022-09-25T10:14:36.822Z,6.67
2022-09-25T10:17:05.915Z,5.27
2022-09-25T10:20:00.872Z,6.43
2022-09-25T10:22:37.022Z,7.60
2022-09-25T10:25:06.390Z,6.60
2022-09-25T10:27:41.267Z,6.67
2022-09-25T10:30:10.711Z,8.97
2022-09-25T10:32:58.226Z,6.47
2022-09-25T10:35:43.093Z,5.27
2022-09-25T10:38:36.266Z,5.00
2022-09-25T10:41:15.024Z,4.70
2022-09-25T10:43:58.180Z,4.07
2022-09-25T10:46:55.534Z,4.27
2022-09-25T10:49:42.746Z,5.00
2022-09-25T10:52:13.786Z,4.50
2022-09-25T10:54:45.470Z,4.10
2022-09-25T10:57:35.743Z,3.80
2022-09-25T11:00:07.389Z,3.83
2022-09-25T11:02:43.184Z,3.50
2022-09-25T11:05:28.669Z,4.07
2022-09-25T11:08:00.347Z,4.47
2022-09-25T11:10:49.920Z,4.50
2022-09-25T11:13:24.846Z,4.00
2022-09-25T11:15:58.302Z,3.60
2022-09-25T11:19:01.194Z,3.73
2022-09-25T11:21:40.050Z,4.20
2022-09-25T11:25:01.102Z,3.77
2022-09-25T11:27:36.295Z,3.40
2022-09-25T11:30:06.497Z,3.70
2022-09-25T11:32:39.997Z,3.40
2022-09-25T11:35:50.185Z,3.40
2022-09-25T11:38:47.524Z,4.20
2022-09-25T11:41:55.954Z,3.37
2022-09-25T11:44:47.613Z,3.40
2022-09-25T11:47:25.096Z,3.37
2022-09-25T11:49:54.682Z,3.50
2022-09-25T11:53:10.270Z,3.17
2022-09-25T11:55:57.420Z,2.77
2022-09-25T11:58:45.907Z,2.90
2022-09-25T12:01:40.850Z,3.17
2022-09-25T12:04:41.511Z,2.40
2022-09-25T12:07:35.762Z,2.30
2022-09-25T12:10:41.528Z,2.97
2022-09-25T12:13:31.849Z,2.90
2022-09-25T12:16:18.503Z,3.17
2022-09-25T12:19:19.067Z,3.07
2022-09-25T12:22:27.753Z,3.10
2022-09-25T12:25:16.458Z,2.53
2022-09-25T12:28:30.615Z,3.20
2022-09-25T12:31:33.624Z,3.37
2022-09-25T12:34:17.724Z,3.13
2022-09-25T12:37:12.835Z,2.70
2022-09-25T12:39:49.264Z,2.70
2022-09-25T12:42:40.890Z,3.00
2022-09-25T12:45:23.264Z,2.80
2022-09-25T12:48:12.259Z,2.50
2022-09-25T12:50:51.806Z,2.20
2022-09-25T12:53:30.992Z,2.57
2022-09-25T12:56:13.377Z,2.60
2022-09-25T12:59:21.464Z,2.23
2022-09-25T13:02:26.308Z,2.47
2022-09-25T13:05:15.913Z,2.67
2022-09-25T13:08:11.998Z,2.47
2022-09-25T13:11:01.530Z,3.00
2022-09-25T13:13:36.476Z,2.80
2022-09-25T13:16:03.581Z,2.83
2022-09-25T13:18:33.910Z,2.47
2022-09-25T13:21:39.397Z,2.73
2022-09-25T13:24:13.487Z,3.87
2022-09-25T13:26:55.062Z,3.77
2022-09-25T13:29:29.631Z,3.83
2022-09-25T13:32:29.273Z,3.47
2022-09-25T13:35:02.819Z,3.10
2022-09-25T13:37:35.359Z,3.10
2022-09-25T13:40:33.918Z,2.70
2022-09-25T13:43:27.642Z,2.60
2022-09-25T13:46:23.132Z,2.53
2022-09-25T13:48:55.303Z,2.50
2022-09-25T13:51:21.955Z,2.50
2022-09-25T13:54:09.497Z,2.40
2022-09-25T13:56:41.705Z,2.87
2022-09-25T13:59:15.031Z,2.67
2022-09-25T14:01:58.024Z,2.47
2022-09-25T14:04:38.631Z,2.60
2022-09-25T14:07:19.964Z,2.50
2022-09-25T14:09:53.716Z,2.77
2022-09-25T14:12:42.435Z,2.90
2022-09-25T14:15:40.490Z,2.87
2022-09-25T14:18:18.237Z,2.53
2022-09-25T14:20:50.187Z,2.90
2022-09-25T14:23:29.785Z,2.90
2022-09-25T14:26:01.299Z,2.17
2022-09-25T14:28:42.844Z,2.47
2022-09-25T14:31:37.056Z,2.27
2022-09-25T14:34:41.314Z,2.60
2022-09-25T14:38:07.272Z,2.40
2022-09-25T14:41:04.155Z,2.60
2022-09-25T14:44:09.797Z,2.63
2022-09-25T14:46:37.307Z,2.50
2022-09-25T14:49:24.184Z,2.53
2022-09-25T14:51:57.610Z,3.10
2022-09-25T14:54:30.937Z,3.23
2022-09-25T14:56:58.982Z,3.00
2022-09-25T14:59:46.174Z,2.93
2022-09-25T15:02:26.552Z,2.63
2022-09-25T15:05:16.678Z,2.40
2022-09-25T15:07:45.287Z,2.57
2022-09-25T15:10:41.430Z,2.30
2022-09-25T15:13:19.828Z,2.30
2022-09-25T15:16:15.274Z,2.20
2022-09-25T15:18:53.960Z,2.60
2022-09-25T15:21:32.253Z,2.80
2022-09-25T15:24:06.922Z,2.90
2022-09-25T15:26:39.408Z,2.80
2022-09-25T15:29:24.024Z,2.60
2022-09-25T15:31:51.720Z,2.60
2022-09-25T15:34:29.818Z,2.20
2022-09-25T15:37:25.786Z,2.40
2022-09-25T15:39:53.782Z,2.83
2022-09-25T15:42:20.804Z,3.20
2022-09-25T15:44:51.259Z,3.40
2022-09-25T15:47:35.862Z,3.53
2022-09-25T15:50:13.261Z,3.90
2022-09-25T15:52:39.989Z,3.90
2022-09-25T15:55:16.347Z,4.40
2022-09-25T15:57:43.703Z,4.13
2022-09-25T16:00:44.691Z,3.90
2022-09-25T16:03:38.092Z,3.37
2022-09-25T16:06:05.241Z,3.17
2022-09-25T16:08:36.634Z,3.20
2022-09-25T16:11:22.606Z,3.13
2022-09-25T16:13:53.704Z,2.90
2022-09-25T16:16:29.844Z,3.77
2022-09-25T16:19:26.279Z,3.33
2022-09-25T16:21:54.522Z,3.40
2022-09-25T16:24:28.776Z,3.70
2022-09-25T16:27:04.474Z,3.73
2022-09-25T16:29:39.042Z,4.53
2022-09-25T16:32:16.682Z,5.03
2022-09-25T16:34:58.291Z,4.13
2022-09-25T16:37:31.795Z,4.40
2022-09-25T16:40:24.700Z,4.40
2022-09-25T16:42:56.168Z,4.83
2022-09-25T16:45:29.598Z,5.73
2022-09-25T16:47:58.417Z,6.00
2022-09-25T16:50:39.708Z,7.40
2022-09-25T16:53:06.897Z,8.13
2022-09-25T16:55:34.063Z,7.30
2022-09-25T16:58:02.516Z,6.83
2022-09-25T17:00:29.958Z,7.43
2022-09-25T17:02:57.006Z,6.13
2022-09-25T17:05:31.093Z,5.83
2022-09-25T17:08:25.033Z,6.20
2022-09-25T17:10:52.793Z,5.70
2022-09-25T17:13:28.248Z,4.97
2022-09-25T17:15:57.278Z,5.07
2022-09-25T17:18:24.115Z,4.50
2022-09-25T17:20:53.467Z,4.67
2022-09-25T17:23:24.596Z,6.50
2022-09-25T17:26:16.648Z,7.33
2022-09-25T17:28:43.375Z,8.70
2022-09-25T17:31:21.888Z,7.90
2022-09-25T17:33:52.534Z,6.53
2022-09-25T17:36:19.441Z,6.20
2022-09-25T17:38:46.242Z,5.97
2022-09-25T17:41:32.875Z,5.07
2022-09-25T17:44:00.124Z,4.37
2022-09-25T17:46:27.224Z,4.07
2022-09-25T17:48:54.997Z,3.93
2022-09-25T17:51:24.700Z,4.00
2022-09-25T17:53:55.804Z,3.67
2022-09-25T17:56:29.457Z,3.53
2022-09-25T17:58:57.763Z,5.60
2022-09-25T18:01:28.257Z,6.30
2022-09-25T18:03:58.177Z,5.67
2022-09-25T18:06:27.456Z,5.43
2022-09-25T18:08:55.589Z,5.93
2022-09-25T18:11:25.025Z,5.97
2022-09-25T18:14:01.176Z,5.50
2022-09-25T18:16:31.505Z,6.20
2022-09-25T18:19:17.975Z,7.57
2022-09-25T18:22:03.302Z,6.67
2022-09-25T18:24:30.262Z,6.03
2022-09-25T18:26:57.965Z,6.03
2022-09-25T18:29:25.247Z,7.07
2022-09-25T18:31:52.554Z,5.87
2022-09-25T18:34:21.529Z,6.43
2022-09-25T18:36:49.850Z,6.43
2022-09-25T18:39:20.198Z,6.20
2022-09-25T18:41:48.153Z,6.27
2022-09-25T18:44:17.495Z,5.83
2022-09-25T18:46:44.324Z,5.23
2022-09-25T18:49:11.152Z,5.87
2022-09-25T18:51:37.930Z,5.80
2022-09-25T18:54:04.708Z,6.30
2022-09-25T18:56:34.339Z,6.77
2022-09-25T18:59:05.564Z,6.10
2022-09-25T19:01:34.597Z,6.40
2022-09-25T19:04:01.494Z,6.40
2022-09-25T19:06:28.194Z,6.53
2022-09-25T19:08:57.699Z,6.30
2022-09-25T19:11:26.473Z,6.00
2022-09-25T19:13:53.851Z,5.10
2022-09-25T19:16:21.483Z,5.90
2022-09-25T19:18:50.030Z,5.73
2022-09-25T19:21:22.587Z,5.23
2022-09-25T19:23:50.408Z,5.00
2022-09-25T19:26:22.010Z,5.07
2022-09-25T19:28:48.900Z,4.80
2022-09-25T19:31:22.784Z,5.00
2022-09-25T19:33:50.613Z,5.50
2022-09-25T19:36:32.511Z,4.93
2022-09-25T19:39:00.686Z,5.03
2022-09-25T19:41:33.957Z,4.93
2022-09-25T19:44:12.624Z,5.63
2022-09-25T19:46:44.971Z,5.30
2022-09-25T19:49:13.601Z,5.00
2022-09-25T19:51:42.063Z,4.63
2022-09-25T19:54:12.594Z,4.60
2022-09-25T19:56:40.565Z,5.20
2022-09-25T19:59:17.207Z,4.37
2022-09-25T20:01:44.990Z,4.73
2022-09-25T20:04:17.975Z,5.20
2022-09-25T20:06:46.686Z,4.97
2022-09-25T20:09:13.618Z,5.10
2022-09-25T20:11:40.450Z,4.87
2022-09-25T20:14:08.596Z,4.73
2022-09-25T20:16:37.440Z,4.70
2022-09-25T20:19:07.004Z,5.07
2022-09-25T20:21:37.082Z,4.70
2022-09-25T20:24:07.204Z,4.37
2022-09-25T20:26:35.844Z,4.50
2022-09-25T20:29:09.062Z,4.07
2022-09-25T20:31:38.252Z,4.20
2022-09-25T20:34:06.141Z,4.20
2022-09-25T20:36:33.377Z,4.13
2022-09-25T20:39:00.880Z,3.97
2022-09-25T20:41:27.613Z,4.30
2022-09-25T20:43:57.239Z,4.30
2022-09-25T20:46:26.572Z,4.70
2022-09-25T20:48:57.343Z,4.10
2022-09-25T20:51:30.797Z,4.60
2022-09-25T20:54:04.343Z,4.30
2022-09-25T20:56:32.866Z,4.03
2022-09-25T20:59:01.858Z,4.17
2022-09-25T21:01:34.485Z,4.00
2022-09-25T21:04:04.831Z,3.90
2022-09-25T21:06:34.478Z,3.60
2022-09-25T21:09:07.149Z,3.87
2022-09-25T21:11:34.979Z,3.93
2022-09-25T21:14:03.495Z,3.57
2022-09-25T21:16:33.141Z,3.30
2022-09-25T21:19:04.297Z,3.60
2022-09-25T21:21:33.182Z,3.43
2022-09-25T21:24:01.179Z,3.67
2022-09-25T21:26:30.540Z,4.00
2022-09-25T21:29:01.250Z,3.80
2022-09-25T21:31:36.540Z,3.20
2022-09-25T21:34:10.498Z,3.20
2022-09-25T21:36:38.999Z,3.40
2022-09-25T21:39:07.325Z,3.23
2022-09-25T21:41:34.971Z,3.77
2022-09-25T21:44:07.215Z,3.53
2022-09-25T21:46:34.870Z,3.50
2022-09-25T21:49:05.691Z,3.43
2022-09-25T21:51:42.533Z,3.20
2022-09-25T21:54:10.853Z,3.50
2022-09-25T21:56:37.754Z,3.63
2022-09-25T21:59:08.887Z,4.20
2022-09-25T22:01:40.058Z,3.90
2022-09-25T22:04:11.781Z,4.10
2022-09-25T22:06:43.042Z,3.77
2022-09-25T22:09:21.751Z,3.57
2022-09-25T22:11:49.472Z,3.70
2022-09-25T22:14:17.446Z,3.50
2022-09-25T22:16:48.573Z,4.10
2022-09-25T22:19:23.580Z,3.97
2022-09-25T22:21:53.131Z,4.33
2022-09-25T22:24:20.317Z,4.10
2022-09-25T22:26:49.425Z,4.10
2022-09-25T22:29:16.656Z,3.73
2022-09-25T22:31:44.119Z,3.90
2022-09-25T22:34:29.332Z,4.30
2022-09-25T22:36:59.972Z,4.23
2022-09-25T22:39:28.971Z,4.50
2022-09-25T22:41:56.801Z,4.73
2022-09-25T22:44:43.791Z,4.20
2022-09-25T22:47:10.488Z,5.70
2022-09-25T22:49:37.210Z,4.40
2022-09-25T22:52:05.151Z,5.07
2022-09-25T22:54:31.876Z,4.57
2022-09-25T22:56:59.094Z,4.63
2022-09-25T22:59:25.795Z,5.33
2022-09-25T23:01:54.437Z,5.10
2022-09-25T23:04:25.522Z,4.17
2022-09-25T23:06:52.902Z,5.13
2022-09-25T23:09:27.170Z,5.17
2022-09-25T23:11:56.310Z,5.90
2022-09-25T23:14:29.427Z,6.30
2022-09-25T23:16:57.024Z,5.10
2022-09-25T23:19:25.114Z,5.00
2022-09-25T23:21:53.806Z,5.53
2022-09-25T23:24:22.156Z,5.37
2022-09-25T23:26:50.251Z,5.20
2022-09-25T23:29:20.129Z,4.83
2022-09-25T23:31:48.319Z,4.23
2022-09-25T23:34:16.008Z,4.30
2022-09-25T23:36:43.194Z,4.40
2022-09-25T23:39:16.627Z,4.60
2022-09-25T23:41:43.858Z,4.07
2022-09-25T23:44:11.743Z,3.80
2022-09-25T23:46:41.877Z,4.00
2022-09-25T23:49:09.446Z,3.83
2022-09-25T23:51:36.579Z,3.60
2022-09-25T23:54:03.928Z,4.07
2022-09-25T23:56:34.336Z,3.83
2022-09-25T23:59:02.383Z,4.00
